sensor_id;sensor_type;location;lat;lon;timestamp;P1;durP1;ratioP1;P2;durP2;ratioP2
16766;SDS011;8501;49.926;8.404;2023-12-29T00:00:34;4.33;;;3.93;;
16766;SDS011;8501;49.926;8.404;2023-12-29T00:02:59;6.00;;;4.20;;
16766;SDS011;8501;49.926;8.404;2023-12-29T00:05:25;5.17;;;3.80;;
16766;SDS011;8501;49.926;8.404;2023-12-29T00:07:52;4.60;;;3.73;;
16766;SDS011;8501;49.926;8.404;2023-12-29T00:10:18;4.70;;;3.67;;
16766;SDS011;8501;49.926;8.404;2023-12-29T00:12:43;5.43;;;4.13;;
16766;SDS011;8501;49.926;8.404;2023-12-29T00:15:12;5.13;;;4.00;;
16766;SDS011;8501;49.926;8.404;2023-12-29T00:17:37;4.90;;;3.90;;
16766;SDS011;8501;49.926;8.404;2023-12-29T00:20:05;5.60;;;3.27;;
16766;SDS011;8501;49.926;8.404;2023-12-29T00:22:33;5.20;;;3.50;;
16766;SDS011;8501;49.926;8.404;2023-12-29T00:24:59;4.70;;;3.70;;
16766;SDS011;8501;49.926;8.404;2023-12-29T00:27:24;5.00;;;3.50;;
16766;SDS011;8501;49.926;8.404;2023-12-29T00:29:50;5.20;;;3.47;;
16766;SDS011;8501;49.926;8.404;2023-12-29T00:32:16;4.93;;;3.67;;
16766;SDS011;8501;49.926;8.404;2023-12-29T00:34:41;4.70;;;3.47;;
16766;SDS011;8501;49.926;8.404;2023-12-29T00:37:07;4.30;;;3.30;;
16766;SDS011;8501;49.926;8.404;2023-12-29T00:39:33;5.03;;;3.30;;
16766;SDS011;8501;49.926;8.404;2023-12-29T00:42:03;5.50;;;3.13;;
16766;SDS011;8501;49.926;8.404;2023-12-29T00:44:30;4.50;;;3.50;;
16766;SDS011;8501;49.926;8.404;2023-12-29T00:46:55;4.90;;;3.77;;
16766;SDS011;8501;49.926;8.404;2023-12-29T00:49:21;4.10;;;3.60;;
16766;SDS011;8501;49.926;8.404;2023-12-29T00:51:49;5.57;;;3.57;;
16766;SDS011;8501;49.926;8.404;2023-12-29T00:54:15;5.97;;;4.37;;
16766;SDS011;8501;49.926;8.404;2023-12-29T00:56:41;4.23;;;3.40;;
16766;SDS011;8501;49.926;8.404;2023-12-29T00:59:06;4.67;;;3.60;;
16766;SDS011;8501;49.926;8.404;2023-12-29T01:01:35;4.73;;;3.33;;
16766;SDS011;8501;49.926;8.404;2023-12-29T01:04:01;5.23;;;3.70;;
16766;SDS011;8501;49.926;8.404;2023-12-29T01:06:27;5.87;;;3.93;;
16766;SDS011;8501;49.926;8.404;2023-12-29T01:08:52;5.50;;;3.67;;
16766;SDS011;8501;49.926;8.404;2023-12-29T01:11:18;4.83;;;3.80;;
16766;SDS011;8501;49.926;8.404;2023-12-29T01:13:43;4.27;;;3.30;;
16766;SDS011;8501;49.926;8.404;2023-12-29T01:16:09;5.40;;;3.80;;
16766;SDS011;8501;49.926;8.404;2023-12-29T01:18:34;4.33;;;3.50;;
16766;SDS011;8501;49.926;8.404;2023-12-29T01:21:00;4.47;;;3.50;;
16766;SDS011;8501;49.926;8.404;2023-12-29T01:23:25;5.83;;;3.67;;
16766;SDS011;8501;49.926;8.404;2023-12-29T01:25:51;5.20;;;3.57;;
16766;SDS011;8501;49.926;8.404;2023-12-29T01:28:16;4.43;;;3.57;;
16766;SDS011;8501;49.926;8.404;2023-12-29T01:30:42;5.03;;;3.40;;
16766;SDS011;8501;49.926;8.404;2023-12-29T01:33:07;4.70;;;3.50;;
16766;SDS011;8501;49.926;8.404;2023-12-29T01:35:33;4.23;;;3.30;;
16766;SDS011;8501;49.926;8.404;2023-12-29T01:37:59;4.87;;;3.90;;
16766;SDS011;8501;49.926;8.404;2023-12-29T01:40:25;4.53;;;3.40;;
16766;SDS011;8501;49.926;8.404;2023-12-29T01:42:51;4.70;;;3.53;;
16766;SDS011;8501;49.926;8.404;2023-12-29T01:45:21;5.20;;;4.03;;
16766;SDS011;8501;49.926;8.404;2023-12-29T01:47:48;6.40;;;3.80;;
16766;SDS011;8501;49.926;8.404;2023-12-29T01:50:14;5.13;;;3.53;;
16766;SDS011;8501;49.926;8.404;2023-12-29T01:52:41;4.80;;;3.47;;
16766;SDS011;8501;49.926;8.404;2023-12-29T01:55:08;4.03;;;3.27;;
16766;SDS011;8501;49.926;8.404;2023-12-29T01:57:37;4.30;;;3.33;;
16766;SDS011;8501;49.926;8.404;2023-12-29T02:00:04;6.53;;;3.60;;
16766;SDS011;8501;49.926;8.404;2023-12-29T02:02:30;3.33;;;2.93;;
16766;SDS011;8501;49.926;8.404;2023-12-29T02:04:57;4.53;;;3.07;;
16766;SDS011;8501;49.926;8.404;2023-12-29T02:07:23;4.97;;;2.97;;
16766;SDS011;8501;49.926;8.404;2023-12-29T02:09:49;5.13;;;3.00;;
16766;SDS011;8501;49.926;8.404;2023-12-29T02:12:16;5.17;;;3.17;;
16766;SDS011;8501;49.926;8.404;2023-12-29T02:14:42;4.30;;;3.10;;
16766;SDS011;8501;49.926;8.404;2023-12-29T02:17:20;4.33;;;3.10;;
16766;SDS011;8501;49.926;8.404;2023-12-29T02:19:57;4.20;;;3.33;;
16766;SDS011;8501;49.926;8.404;2023-12-29T02:22:23;5.90;;;3.70;;
16766;SDS011;8501;49.926;8.404;2023-12-29T02:24:49;6.70;;;3.40;;
16766;SDS011;8501;49.926;8.404;2023-12-29T02:27:23;4.53;;;3.13;;
16766;SDS011;8501;49.926;8.404;2023-12-29T02:32:31;5.00;;;2.97;;
16766;SDS011;8501;49.926;8.404;2023-12-29T02:35:01;3.33;;;2.77;;
16766;SDS011;8501;49.926;8.404;2023-12-29T02:37:27;4.83;;;3.70;;
16766;SDS011;8501;49.926;8.404;2023-12-29T02:39:54;5.23;;;3.03;;
16766;SDS011;8501;49.926;8.404;2023-12-29T02:42:21;4.37;;;2.87;;
16766;SDS011;8501;49.926;8.404;2023-12-29T02:44:46;5.20;;;3.40;;
16766;SDS011;8501;49.926;8.404;2023-12-29T02:47:12;3.30;;;2.90;;
16766;SDS011;8501;49.926;8.404;2023-12-29T02:49:37;4.97;;;3.40;;
16766;SDS011;8501;49.926;8.404;2023-12-29T02:52:03;4.83;;;3.27;;
16766;SDS011;8501;49.926;8.404;2023-12-29T02:54:29;4.33;;;2.87;;
16766;SDS011;8501;49.926;8.404;2023-12-29T02:56:54;5.63;;;3.10;;
16766;SDS011;8501;49.926;8.404;2023-12-29T02:59:21;3.80;;;3.00;;
16766;SDS011;8501;49.926;8.404;2023-12-29T03:01:46;3.80;;;3.10;;
16766;SDS011;8501;49.926;8.404;2023-12-29T03:04:12;6.23;;;3.40;;
16766;SDS011;8501;49.926;8.404;2023-12-29T03:06:37;5.60;;;3.17;;
16766;SDS011;8501;49.926;8.404;2023-12-29T03:09:03;3.67;;;3.00;;
16766;SDS011;8501;49.926;8.404;2023-12-29T03:11:28;5.67;;;2.80;;
16766;SDS011;8501;49.926;8.404;2023-12-29T03:13:54;4.33;;;2.93;;
16766;SDS011;8501;49.926;8.404;2023-12-29T03:16:19;4.23;;;2.67;;
16766;SDS011;8501;49.926;8.404;2023-12-29T03:18:45;3.43;;;2.90;;
16766;SDS011;8501;49.926;8.404;2023-12-29T03:21:10;3.50;;;2.80;;
16766;SDS011;8501;49.926;8.404;2023-12-29T03:23:36;3.60;;;2.70;;
16766;SDS011;8501;49.926;8.404;2023-12-29T03:26:02;4.90;;;3.00;;
16766;SDS011;8501;49.926;8.404;2023-12-29T03:28:33;3.50;;;2.70;;
16766;SDS011;8501;49.926;8.404;2023-12-29T03:31:08;4.33;;;2.93;;
16766;SDS011;8501;49.926;8.404;2023-12-29T03:33:33;4.37;;;2.80;;
16766;SDS011;8501;49.926;8.404;2023-12-29T03:35:59;7.03;;;2.80;;
16766;SDS011;8501;49.926;8.404;2023-12-29T03:38:24;4.37;;;2.80;;
16766;SDS011;8501;49.926;8.404;2023-12-29T03:40:50;4.80;;;2.90;;
16766;SDS011;8501;49.926;8.404;2023-12-29T03:43:15;4.07;;;2.77;;
16766;SDS011;8501;49.926;8.404;2023-12-29T03:45:41;6.33;;;3.37;;
16766;SDS011;8501;49.926;8.404;2023-12-29T03:48:06;3.93;;;2.83;;
16766;SDS011;8501;49.926;8.404;2023-12-29T03:50:33;4.90;;;2.77;;
16766;SDS011;8501;49.926;8.404;2023-12-29T03:52:59;3.47;;;3.07;;
16766;SDS011;8501;49.926;8.404;2023-12-29T03:55:24;3.80;;;2.80;;
16766;SDS011;8501;49.926;8.404;2023-12-29T03:57:50;3.23;;;2.63;;
16766;SDS011;8501;49.926;8.404;2023-12-29T04:00:15;3.13;;;2.70;;
16766;SDS011;8501;49.926;8.404;2023-12-29T04:02:41;4.20;;;2.90;;
16766;SDS011;8501;49.926;8.404;2023-12-29T04:05:08;4.17;;;2.57;;
16766;SDS011;8501;49.926;8.404;2023-12-29T04:07:34;5.23;;;2.73;;
16766;SDS011;8501;49.926;8.404;2023-12-29T04:09:59;4.03;;;2.57;;
16766;SDS011;8501;49.926;8.404;2023-12-29T04:12:25;4.73;;;2.60;;
16766;SDS011;8501;49.926;8.404;2023-12-29T04:14:50;5.20;;;2.80;;
16766;SDS011;8501;49.926;8.404;2023-12-29T04:17:16;3.63;;;2.37;;
16766;SDS011;8501;49.926;8.404;2023-12-29T04:19:42;4.77;;;2.80;;
16766;SDS011;8501;49.926;8.404;2023-12-29T04:22:07;3.20;;;2.50;;
16766;SDS011;8501;49.926;8.404;2023-12-29T04:24:33;3.30;;;2.30;;
16766;SDS011;8501;49.926;8.404;2023-12-29T04:26:59;4.00;;;2.70;;
16766;SDS011;8501;49.926;8.404;2023-12-29T04:29:24;4.57;;;2.50;;
16766;SDS011;8501;49.926;8.404;2023-12-29T04:31:50;3.10;;;2.50;;
16766;SDS011;8501;49.926;8.404;2023-12-29T04:34:16;6.73;;;2.90;;
16766;SDS011;8501;49.926;8.404;2023-12-29T04:36:41;5.37;;;2.73;;
16766;SDS011;8501;49.926;8.404;2023-12-29T04:39:07;5.47;;;2.70;;
16766;SDS011;8501;49.926;8.404;2023-12-29T04:41:34;4.93;;;2.67;;
16766;SDS011;8501;49.926;8.404;2023-12-29T04:44:00;3.60;;;2.50;;
16766;SDS011;8501;49.926;8.404;2023-12-29T04:46:25;3.80;;;2.50;;
16766;SDS011;8501;49.926;8.404;2023-12-29T04:48:51;4.60;;;2.40;;
16766;SDS011;8501;49.926;8.404;2023-12-29T04:51:16;3.80;;;2.47;;
16766;SDS011;8501;49.926;8.404;2023-12-29T04:53:42;3.87;;;2.53;;
16766;SDS011;8501;49.926;8.404;2023-12-29T04:56:07;3.63;;;2.60;;
16766;SDS011;8501;49.926;8.404;2023-12-29T04:58:34;2.87;;;2.30;;
16766;SDS011;8501;49.926;8.404;2023-12-29T05:00:59;3.73;;;2.60;;
16766;SDS011;8501;49.926;8.404;2023-12-29T05:03:25;4.37;;;2.60;;
16766;SDS011;8501;49.926;8.404;2023-12-29T05:05:52;5.77;;;2.70;;
16766;SDS011;8501;49.926;8.404;2023-12-29T05:08:17;4.73;;;3.03;;
16766;SDS011;8501;49.926;8.404;2023-12-29T05:10:43;3.00;;;2.70;;
16766;SDS011;8501;49.926;8.404;2023-12-29T05:13:08;3.53;;;2.80;;
16766;SDS011;8501;49.926;8.404;2023-12-29T05:15:35;3.73;;;2.80;;
16766;SDS011;8501;49.926;8.404;2023-12-29T05:18:01;3.70;;;2.57;;
16766;SDS011;8501;49.926;8.404;2023-12-29T05:20:26;4.70;;;2.50;;
16766;SDS011;8501;49.926;8.404;2023-12-29T05:22:52;4.33;;;2.70;;
16766;SDS011;8501;49.926;8.404;2023-12-29T05:25:17;2.93;;;2.40;;
16766;SDS011;8501;49.926;8.404;2023-12-29T05:27:44;4.17;;;2.53;;
16766;SDS011;8501;49.926;8.404;2023-12-29T05:30:09;3.30;;;2.50;;
16766;SDS011;8501;49.926;8.404;2023-12-29T05:32:37;3.80;;;2.83;;
16766;SDS011;8501;49.926;8.404;2023-12-29T05:35:03;4.07;;;2.60;;
16766;SDS011;8501;49.926;8.404;2023-12-29T05:37:28;3.57;;;2.77;;
16766;SDS011;8501;49.926;8.404;2023-12-29T05:39:54;5.50;;;2.93;;
16766;SDS011;8501;49.926;8.404;2023-12-29T05:42:19;4.00;;;2.80;;
16766;SDS011;8501;49.926;8.404;2023-12-29T05:44:46;3.60;;;2.70;;
16766;SDS011;8501;49.926;8.404;2023-12-29T05:47:13;3.23;;;2.60;;
16766;SDS011;8501;49.926;8.404;2023-12-29T05:49:39;3.60;;;2.77;;
16766;SDS011;8501;49.926;8.404;2023-12-29T05:52:05;5.97;;;2.67;;
16766;SDS011;8501;49.926;8.404;2023-12-29T05:54:32;5.70;;;3.10;;
16766;SDS011;8501;49.926;8.404;2023-12-29T05:56:58;3.70;;;2.57;;
16766;SDS011;8501;49.926;8.404;2023-12-29T05:59:23;3.40;;;2.60;;
16766;SDS011;8501;49.926;8.404;2023-12-29T06:01:49;4.50;;;3.00;;
16766;SDS011;8501;49.926;8.404;2023-12-29T06:04:14;3.73;;;2.73;;
16766;SDS011;8501;49.926;8.404;2023-12-29T06:06:43;4.97;;;2.70;;
16766;SDS011;8501;49.926;8.404;2023-12-29T06:09:09;5.37;;;2.80;;
16766;SDS011;8501;49.926;8.404;2023-12-29T06:11:35;3.70;;;2.70;;
16766;SDS011;8501;49.926;8.404;2023-12-29T06:14:01;4.87;;;2.80;;
16766;SDS011;8501;49.926;8.404;2023-12-29T06:16:27;3.10;;;2.53;;
16766;SDS011;8501;49.926;8.404;2023-12-29T06:18:54;4.00;;;2.70;;
16766;SDS011;8501;49.926;8.404;2023-12-29T06:21:20;4.07;;;2.77;;
16766;SDS011;8501;49.926;8.404;2023-12-29T06:23:46;4.57;;;3.00;;
16766;SDS011;8501;49.926;8.404;2023-12-29T06:26:15;5.27;;;3.07;;
16766;SDS011;8501;49.926;8.404;2023-12-29T06:28:43;3.07;;;2.73;;
16766;SDS011;8501;49.926;8.404;2023-12-29T06:31:10;6.53;;;3.30;;
16766;SDS011;8501;49.926;8.404;2023-12-29T06:33:36;4.00;;;2.60;;
16766;SDS011;8501;49.926;8.404;2023-12-29T06:36:03;4.27;;;2.80;;
16766;SDS011;8501;49.926;8.404;2023-12-29T06:38:28;6.10;;;2.90;;
16766;SDS011;8501;49.926;8.404;2023-12-29T06:40:55;4.30;;;3.03;;
16766;SDS011;8501;49.926;8.404;2023-12-29T06:43:20;4.63;;;3.07;;
16766;SDS011;8501;49.926;8.404;2023-12-29T06:45:46;3.03;;;2.63;;
16766;SDS011;8501;49.926;8.404;2023-12-29T06:48:11;4.93;;;2.80;;
16766;SDS011;8501;49.926;8.404;2023-12-29T06:50:37;5.53;;;2.80;;
16766;SDS011;8501;49.926;8.404;2023-12-29T06:53:02;4.07;;;2.83;;
16766;SDS011;8501;49.926;8.404;2023-12-29T06:55:28;4.27;;;2.67;;
16766;SDS011;8501;49.926;8.404;2023-12-29T06:57:56;3.93;;;2.77;;
16766;SDS011;8501;49.926;8.404;2023-12-29T07:00:22;4.40;;;3.00;;
16766;SDS011;8501;49.926;8.404;2023-12-29T07:02:48;4.43;;;3.10;;
16766;SDS011;8501;49.926;8.404;2023-12-29T07:05:13;6.27;;;3.10;;
16766;SDS011;8501;49.926;8.404;2023-12-29T07:07:39;4.80;;;2.90;;
16766;SDS011;8501;49.926;8.404;2023-12-29T07:10:05;5.23;;;2.80;;
16766;SDS011;8501;49.926;8.404;2023-12-29T07:12:31;3.57;;;2.90;;
16766;SDS011;8501;49.926;8.404;2023-12-29T07:14:56;3.47;;;2.87;;
16766;SDS011;8501;49.926;8.404;2023-12-29T07:17:22;3.90;;;2.67;;
16766;SDS011;8501;49.926;8.404;2023-12-29T07:19:47;3.80;;;2.90;;
16766;SDS011;8501;49.926;8.404;2023-12-29T07:22:14;3.90;;;2.80;;
16766;SDS011;8501;49.926;8.404;2023-12-29T07:24:40;3.97;;;2.70;;
16766;SDS011;8501;49.926;8.404;2023-12-29T07:27:06;4.47;;;2.60;;
16766;SDS011;8501;49.926;8.404;2023-12-29T07:29:33;3.97;;;2.73;;
16766;SDS011;8501;49.926;8.404;2023-12-29T07:31:59;6.37;;;2.70;;
16766;SDS011;8501;49.926;8.404;2023-12-29T07:34:25;4.47;;;3.23;;
16766;SDS011;8501;49.926;8.404;2023-12-29T07:36:50;3.87;;;2.60;;
16766;SDS011;8501;49.926;8.404;2023-12-29T07:39:17;4.13;;;2.80;;
16766;SDS011;8501;49.926;8.404;2023-12-29T07:41:42;4.53;;;2.60;;
16766;SDS011;8501;49.926;8.404;2023-12-29T07:44:13;3.97;;;2.30;;
16766;SDS011;8501;49.926;8.404;2023-12-29T07:46:39;3.47;;;2.53;;
16766;SDS011;8501;49.926;8.404;2023-12-29T07:49:05;4.53;;;2.50;;
16766;SDS011;8501;49.926;8.404;2023-12-29T07:51:30;5.07;;;2.50;;
16766;SDS011;8501;49.926;8.404;2023-12-29T07:53:56;4.17;;;2.60;;
16766;SDS011;8501;49.926;8.404;2023-12-29T07:56:22;3.50;;;2.50;;
16766;SDS011;8501;49.926;8.404;2023-12-29T07:58:47;3.80;;;2.50;;
16766;SDS011;8501;49.926;8.404;2023-12-29T08:01:13;3.37;;;2.20;;
16766;SDS011;8501;49.926;8.404;2023-12-29T08:03:40;4.80;;;2.50;;
16766;SDS011;8501;49.926;8.404;2023-12-29T08:06:05;4.03;;;2.40;;
16766;SDS011;8501;49.926;8.404;2023-12-29T08:08:31;4.27;;;2.60;;
16766;SDS011;8501;49.926;8.404;2023-12-29T08:10:56;3.40;;;2.37;;
16766;SDS011;8501;49.926;8.404;2023-12-29T08:13:22;5.00;;;2.80;;
16766;SDS011;8501;49.926;8.404;2023-12-29T08:15:49;3.47;;;2.57;;
16766;SDS011;8501;49.926;8.404;2023-12-29T08:18:14;4.43;;;2.50;;
16766;SDS011;8501;49.926;8.404;2023-12-29T08:20:42;4.90;;;2.50;;
16766;SDS011;8501;49.926;8.404;2023-12-29T08:23:08;4.13;;;2.30;;
16766;SDS011;8501;49.926;8.404;2023-12-29T08:25:34;3.00;;;2.13;;
16766;SDS011;8501;49.926;8.404;2023-12-29T08:28:02;3.10;;;2.40;;
16766;SDS011;8501;49.926;8.404;2023-12-29T08:30:27;3.97;;;2.10;;
16766;SDS011;8501;49.926;8.404;2023-12-29T08:32:53;3.80;;;2.30;;
16766;SDS011;8501;49.926;8.404;2023-12-29T08:35:18;5.57;;;2.20;;
16766;SDS011;8501;49.926;8.404;2023-12-29T08:37:44;2.73;;;2.23;;
16766;SDS011;8501;49.926;8.404;2023-12-29T08:40:10;3.87;;;2.13;;
16766;SDS011;8501;49.926;8.404;2023-12-29T08:42:36;5.73;;;2.40;;
16766;SDS011;8501;49.926;8.404;2023-12-29T08:45:02;3.13;;;2.30;;
16766;SDS011;8501;49.926;8.404;2023-12-29T08:47:28;5.60;;;2.30;;
16766;SDS011;8501;49.926;8.404;2023-12-29T08:49:54;4.13;;;2.07;;
16766;SDS011;8501;49.926;8.404;2023-12-29T08:52:20;3.47;;;2.03;;
16766;SDS011;8501;49.926;8.404;2023-12-29T08:54:46;5.00;;;2.30;;
16766;SDS011;8501;49.926;8.404;2023-12-29T08:57:12;2.53;;;2.00;;
16766;SDS011;8501;49.926;8.404;2023-12-29T08:59:38;3.47;;;1.97;;
16766;SDS011;8501;49.926;8.404;2023-12-29T09:02:03;3.70;;;2.30;;
16766;SDS011;8501;49.926;8.404;2023-12-29T09:04:30;3.10;;;2.10;;
16766;SDS011;8501;49.926;8.404;2023-12-29T09:06:55;5.17;;;2.10;;
16766;SDS011;8501;49.926;8.404;2023-12-29T09:09:21;3.50;;;1.93;;
16766;SDS011;8501;49.926;8.404;2023-12-29T09:11:46;3.03;;;2.03;;
16766;SDS011;8501;49.926;8.404;2023-12-29T09:14:13;3.73;;;1.93;;
16766;SDS011;8501;49.926;8.404;2023-12-29T09:16:38;6.00;;;2.00;;
16766;SDS011;8501;49.926;8.404;2023-12-29T09:19:06;4.47;;;1.67;;
16766;SDS011;8501;49.926;8.404;2023-12-29T09:21:31;3.13;;;1.90;;
16766;SDS011;8501;49.926;8.404;2023-12-29T09:23:57;4.10;;;1.97;;
16766;SDS011;8501;49.926;8.404;2023-12-29T09:26:23;3.80;;;2.00;;
16766;SDS011;8501;49.926;8.404;2023-12-29T09:28:49;3.03;;;1.93;;
16766;SDS011;8501;49.926;8.404;2023-12-29T09:31:15;3.93;;;1.90;;
16766;SDS011;8501;49.926;8.404;2023-12-29T09:33:40;5.17;;;2.17;;
16766;SDS011;8501;49.926;8.404;2023-12-29T09:36:06;5.73;;;1.90;;
16766;SDS011;8501;49.926;8.404;2023-12-29T09:38:31;5.60;;;2.37;;
16766;SDS011;8501;49.926;8.404;2023-12-29T09:40:59;4.03;;;2.10;;
16766;SDS011;8501;49.926;8.404;2023-12-29T09:43:30;4.77;;;2.40;;
16766;SDS011;8501;49.926;8.404;2023-12-29T09:45:57;4.87;;;2.07;;
16766;SDS011;8501;49.926;8.404;2023-12-29T09:48:23;5.27;;;1.90;;
16766;SDS011;8501;49.926;8.404;2023-12-29T09:50:52;3.70;;;2.00;;
16766;SDS011;8501;49.926;8.404;2023-12-29T09:53:18;3.00;;;2.20;;
16766;SDS011;8501;49.926;8.404;2023-12-29T09:55:48;5.00;;;2.30;;
16766;SDS011;8501;49.926;8.404;2023-12-29T09:58:14;4.00;;;2.03;;
16766;SDS011;8501;49.926;8.404;2023-12-29T10:00:41;3.77;;;2.23;;
16766;SDS011;8501;49.926;8.404;2023-12-29T10:03:08;3.00;;;2.30;;
16766;SDS011;8501;49.926;8.404;2023-12-29T10:05:34;4.37;;;2.17;;
16766;SDS011;8501;49.926;8.404;2023-12-29T10:08:01;2.57;;;1.90;;
16766;SDS011;8501;49.926;8.404;2023-12-29T10:10:28;3.17;;;2.00;;
16766;SDS011;8501;49.926;8.404;2023-12-29T10:12:55;5.47;;;2.23;;
16766;SDS011;8501;49.926;8.404;2023-12-29T10:15:37;6.17;;;2.10;;
16766;SDS011;8501;49.926;8.404;2023-12-29T10:18:11;3.30;;;2.10;;
16766;SDS011;8501;49.926;8.404;2023-12-29T10:20:50;2.60;;;2.00;;
16766;SDS011;8501;49.926;8.404;2023-12-29T10:23:40;3.03;;;1.90;;
16766;SDS011;8501;49.926;8.404;2023-12-29T10:26:10;3.37;;;2.10;;
16766;SDS011;8501;49.926;8.404;2023-12-29T10:28:36;2.40;;;2.07;;
16766;SDS011;8501;49.926;8.404;2023-12-29T10:31:03;3.50;;;2.20;;
16766;SDS011;8501;49.926;8.404;2023-12-29T10:33:29;3.33;;;2.20;;
16766;SDS011;8501;49.926;8.404;2023-12-29T10:35:57;2.63;;;2.00;;
16766;SDS011;8501;49.926;8.404;2023-12-29T10:38:33;6.87;;;2.30;;
16766;SDS011;8501;49.926;8.404;2023-12-29T10:43:47;7.73;;;3.60;;
16766;SDS011;8501;49.926;8.404;2023-12-29T10:46:17;3.07;;;2.10;;
16766;SDS011;8501;49.926;8.404;2023-12-29T10:48:43;3.37;;;2.23;;
16766;SDS011;8501;49.926;8.404;2023-12-29T10:51:08;3.27;;;1.87;;
16766;SDS011;8501;49.926;8.404;2023-12-29T10:53:35;3.37;;;2.07;;
16766;SDS011;8501;49.926;8.404;2023-12-29T10:56:01;3.53;;;2.20;;
16766;SDS011;8501;49.926;8.404;2023-12-29T10:58:27;3.40;;;2.57;;
16766;SDS011;8501;49.926;8.404;2023-12-29T11:00:57;4.53;;;2.20;;
16766;SDS011;8501;49.926;8.404;2023-12-29T11:03:24;3.63;;;2.23;;
16766;SDS011;8501;49.926;8.404;2023-12-29T11:05:50;5.90;;;4.33;;
16766;SDS011;8501;49.926;8.404;2023-12-29T11:08:23;3.03;;;2.10;;
16766;SDS011;8501;49.926;8.404;2023-12-29T11:10:48;11.97;;;7.60;;
16766;SDS011;8501;49.926;8.404;2023-12-29T11:13:14;8.20;;;5.17;;
16766;SDS011;8501;49.926;8.404;2023-12-29T11:15:44;28.83;;;13.23;;
16766;SDS011;8501;49.926;8.404;2023-12-29T11:18:13;7.80;;;4.27;;
16766;SDS011;8501;49.926;8.404;2023-12-29T11:20:43;3.90;;;2.30;;
16766;SDS011;8501;49.926;8.404;2023-12-29T11:23:10;2.93;;;2.00;;
16766;SDS011;8501;49.926;8.404;2023-12-29T11:25:39;5.17;;;1.93;;
16766;SDS011;8501;49.926;8.404;2023-12-29T11:28:08;2.97;;;1.90;;
16766;SDS011;8501;49.926;8.404;2023-12-29T11:30:37;4.80;;;2.43;;
16766;SDS011;8501;49.926;8.404;2023-12-29T11:35:52;4.53;;;2.50;;
16766;SDS011;8501;49.926;8.404;2023-12-29T11:41:37;4.80;;;2.27;;
16766;SDS011;8501;49.926;8.404;2023-12-29T11:44:13;3.10;;;2.30;;
16766;SDS011;8501;49.926;8.404;2023-12-29T11:46:51;3.30;;;2.00;;
16766;SDS011;8501;49.926;8.404;2023-12-29T11:49:17;2.60;;;2.00;;
16766;SDS011;8501;49.926;8.404;2023-12-29T11:51:44;3.10;;;1.73;;
16766;SDS011;8501;49.926;8.404;2023-12-29T11:54:25;3.70;;;1.77;;
16766;SDS011;8501;49.926;8.404;2023-12-29T11:56:52;2.63;;;1.80;;
16766;SDS011;8501;49.926;8.404;2023-12-29T11:59:22;2.37;;;1.73;;
16766;SDS011;8501;49.926;8.404;2023-12-29T12:01:52;2.73;;;1.90;;
16766;SDS011;8501;49.926;8.404;2023-12-29T12:04:40;3.30;;;1.83;;
16766;SDS011;8501;49.926;8.404;2023-12-29T12:07:17;3.73;;;2.30;;
16766;SDS011;8501;49.926;8.404;2023-12-29T12:10:50;10.77;;;6.73;;
16766;SDS011;8501;49.926;8.404;2023-12-29T12:12:51;2.40;;;2.00;;
16766;SDS011;8501;49.926;8.404;2023-12-29T12:18:05;3.80;;;2.00;;
16766;SDS011;8501;49.926;8.404;2023-12-29T12:20:32;2.63;;;1.70;;
16766;SDS011;8501;49.926;8.404;2023-12-29T12:22:59;3.27;;;1.80;;
16766;SDS011;8501;49.926;8.404;2023-12-29T12:25:26;3.07;;;2.00;;
16766;SDS011;8501;49.926;8.404;2023-12-29T12:27:53;2.50;;;1.50;;
16766;SDS011;8501;49.926;8.404;2023-12-29T12:30:19;4.97;;;2.10;;
16766;SDS011;8501;49.926;8.404;2023-12-29T12:32:44;2.33;;;1.50;;
16766;SDS011;8501;49.926;8.404;2023-12-29T12:35:13;2.93;;;1.50;;
16766;SDS011;8501;49.926;8.404;2023-12-29T12:37:41;3.13;;;1.77;;
16766;SDS011;8501;49.926;8.404;2023-12-29T12:40:06;4.57;;;1.93;;
16766;SDS011;8501;49.926;8.404;2023-12-29T12:42:33;2.83;;;1.50;;
16766;SDS011;8501;49.926;8.404;2023-12-29T12:45:06;3.93;;;2.00;;
16766;SDS011;8501;49.926;8.404;2023-12-29T12:47:44;2.50;;;1.50;;
16766;SDS011;8501;49.926;8.404;2023-12-29T12:50:14;4.23;;;1.60;;
16766;SDS011;8501;49.926;8.404;2023-12-29T12:52:40;3.13;;;1.47;;
16766;SDS011;8501;49.926;8.404;2023-12-29T12:55:06;2.90;;;1.50;;
16766;SDS011;8501;49.926;8.404;2023-12-29T12:57:33;2.27;;;1.70;;
16766;SDS011;8501;49.926;8.404;2023-12-29T13:00:00;2.57;;;1.40;;
16766;SDS011;8501;49.926;8.404;2023-12-29T13:02:27;3.47;;;1.70;;
16766;SDS011;8501;49.926;8.404;2023-12-29T13:04:54;2.83;;;1.50;;
16766;SDS011;8501;49.926;8.404;2023-12-29T13:07:21;2.10;;;1.30;;
16766;SDS011;8501;49.926;8.404;2023-12-29T13:09:47;1.50;;;1.30;;
16766;SDS011;8501;49.926;8.404;2023-12-29T13:12:17;2.30;;;1.67;;
16766;SDS011;8501;49.926;8.404;2023-12-29T13:14:43;2.67;;;1.33;;
16766;SDS011;8501;49.926;8.404;2023-12-29T13:17:10;1.63;;;1.40;;
16766;SDS011;8501;49.926;8.404;2023-12-29T13:19:37;2.40;;;1.33;;
16766;SDS011;8501;49.926;8.404;2023-12-29T13:22:07;2.50;;;1.40;;
16766;SDS011;8501;49.926;8.404;2023-12-29T13:24:33;2.93;;;1.30;;
16766;SDS011;8501;49.926;8.404;2023-12-29T13:27:04;3.17;;;1.50;;
16766;SDS011;8501;49.926;8.404;2023-12-29T13:29:31;2.40;;;1.70;;
16766;SDS011;8501;49.926;8.404;2023-12-29T13:32:00;1.57;;;1.40;;
16766;SDS011;8501;49.926;8.404;2023-12-29T13:34:46;1.93;;;1.33;;
16766;SDS011;8501;49.926;8.404;2023-12-29T13:37:34;2.17;;;1.53;;
16766;SDS011;8501;49.926;8.404;2023-12-29T13:40:12;3.83;;;1.73;;
16766;SDS011;8501;49.926;8.404;2023-12-29T13:42:43;2.63;;;1.40;;
16766;SDS011;8501;49.926;8.404;2023-12-29T13:45:12;2.17;;;1.50;;
16766;SDS011;8501;49.926;8.404;2023-12-29T13:47:40;1.37;;;1.23;;
16766;SDS011;8501;49.926;8.404;2023-12-29T13:50:08;1.40;;;1.30;;
16766;SDS011;8501;49.926;8.404;2023-12-29T13:52:37;2.90;;;1.30;;
16766;SDS011;8501;49.926;8.404;2023-12-29T13:55:04;2.13;;;1.37;;
16766;SDS011;8501;49.926;8.404;2023-12-29T13:57:30;3.20;;;1.10;;
16766;SDS011;8501;49.926;8.404;2023-12-29T13:59:57;2.43;;;1.20;;
16766;SDS011;8501;49.926;8.404;2023-12-29T14:02:23;1.77;;;1.20;;
16766;SDS011;8501;49.926;8.404;2023-12-29T14:07:44;2.63;;;1.40;;
16766;SDS011;8501;49.926;8.404;2023-12-29T14:10:35;1.70;;;1.10;;
16766;SDS011;8501;49.926;8.404;2023-12-29T14:15:33;2.10;;;1.20;;
16766;SDS011;8501;49.926;8.404;2023-12-29T14:20:37;1.97;;;1.30;;
16766;SDS011;8501;49.926;8.404;2023-12-29T14:23:05;2.47;;;1.30;;
16766;SDS011;8501;49.926;8.404;2023-12-29T14:25:31;2.90;;;1.50;;
16766;SDS011;8501;49.926;8.404;2023-12-29T14:28:00;2.30;;;1.27;;
16766;SDS011;8501;49.926;8.404;2023-12-29T14:30:26;1.70;;;1.27;;
16766;SDS011;8501;49.926;8.404;2023-12-29T14:32:56;2.67;;;1.53;;
16766;SDS011;8501;49.926;8.404;2023-12-29T14:35:24;2.40;;;1.50;;
16766;SDS011;8501;49.926;8.404;2023-12-29T14:37:50;2.40;;;1.60;;
16766;SDS011;8501;49.926;8.404;2023-12-29T14:40:15;2.73;;;1.73;;
16766;SDS011;8501;49.926;8.404;2023-12-29T14:42:41;2.37;;;1.67;;
16766;SDS011;8501;49.926;8.404;2023-12-29T14:45:07;1.70;;;1.30;;
16766;SDS011;8501;49.926;8.404;2023-12-29T14:47:34;2.03;;;1.50;;
16766;SDS011;8501;49.926;8.404;2023-12-29T14:50:00;2.90;;;1.60;;
16766;SDS011;8501;49.926;8.404;2023-12-29T14:52:26;1.73;;;1.43;;
16766;SDS011;8501;49.926;8.404;2023-12-29T14:54:51;5.27;;;2.03;;
16766;SDS011;8501;49.926;8.404;2023-12-29T14:57:17;2.77;;;1.70;;
16766;SDS011;8501;49.926;8.404;2023-12-29T14:59:42;2.57;;;1.50;;
16766;SDS011;8501;49.926;8.404;2023-12-29T15:02:08;4.03;;;1.90;;
16766;SDS011;8501;49.926;8.404;2023-12-29T15:04:34;4.60;;;1.80;;
16766;SDS011;8501;49.926;8.404;2023-12-29T15:07:00;3.53;;;1.63;;
16766;SDS011;8501;49.926;8.404;2023-12-29T15:09:26;4.43;;;2.13;;
16766;SDS011;8501;49.926;8.404;2023-12-29T15:11:51;3.13;;;2.20;;
16766;SDS011;8501;49.926;8.404;2023-12-29T15:14:17;3.23;;;1.60;;
16766;SDS011;8501;49.926;8.404;2023-12-29T15:16:44;2.83;;;1.63;;
16766;SDS011;8501;49.926;8.404;2023-12-29T15:19:10;2.27;;;1.90;;
16766;SDS011;8501;49.926;8.404;2023-12-29T15:21:37;4.10;;;1.70;;